Aviation Digital Data Service (ADDS)

Output produced by TAFs form (2134 UTC 16 August 2017)
found at http://www.aviationweather.gov/adds/tafs/
 
KBJC 162050Z 00000KT 30SM FEW090 SCT150 BKN220 22/07 A3017
KBJC 161938Z 1620/1718 09005KT P6SM VCTS SCT070CB BKN150 
     TEMPO 1620/1623 -TSRA BKN070CB 
     FM170200 VRB05KT P6SM FEW120 SCT200 
     FM170500 25007KT P6SM FEW200 
     FM171500 30008KT P6SM FEW110 SCT200